Time;durP1;ratioP1;P1;durP2;ratioP2;P2;SDS_P1;SDS_P2;PMS_P1;PMS_P2;Temp;Humidity;BMP_temperature;BMP_pressure;BME280_temperature;BME280_humidity;BME280_pressure;Samples;Min_cycle;Max_cycle;Signal;HPM_P1;HPM_P2
2021/04/19 00:00:36;;;;;;;9.33;8.43;;;8.30;99.90;;;;;;5068516;28;20229;-79
2021/04/19 00:03:03;;;;;;;8.77;8.07;;;8.20;99.90;;;;;;5068416;28;20230;-79
2021/04/19 00:05:29;;;;;;;8.90;8.10;;;8.20;99.90;;;;;;5077809;28;20256;-77
2021/04/19 00:07:55;;;;;;;8.53;7.83;;;8.10;99.90;;;;;;5088870;28;20268;-78
2021/04/19 00:10:23;;;;;;;8.30;7.50;;;8.10;99.90;;;;;;5088692;28;20257;-77
2021/04/19 00:12:50;;;;;;;9.33;8.43;;;8.10;99.90;;;;;;5088825;28;20202;-78
2021/04/19 00:15:20;;;;;;;8.97;8.10;;;8.00;99.90;;;;;;5083574;28;20297;-78
2021/04/19 00:17:46;;;;;;;8.87;8.07;;;8.00;99.90;;;;;;5082291;28;20207;-78
2021/04/19 00:20:13;;;;;;;9.07;8.23;;;8.00;99.90;;;;;;5087340;28;20604;-78
2021/04/19 00:22:40;;;;;;;7.93;7.07;;;8.00;99.90;;;;;;5088414;28;20199;-78
2021/04/19 00:25:08;;;;;;;8.40;7.63;;;8.00;99.90;;;;;;5088228;28;20206;-78
2021/04/19 00:27:35;;;;;;;8.83;7.93;;;7.90;99.90;;;;;;5088644;28;20202;-78
2021/04/19 00:30:03;;;;;;;8.90;8.10;;;7.90;99.90;;;;;;5088653;28;20203;-78
2021/04/19 00:32:29;;;;;;;8.83;8.03;;;7.90;99.90;;;;;;5088421;28;20234;-78
2021/04/19 00:34:56;;;;;;;8.80;7.93;;;7.90;99.90;;;;;;5088680;28;20210;-78
2021/04/19 00:37:22;;;;;;;8.37;7.63;;;7.90;99.90;;;;;;5088482;28;20251;-77
2021/04/19 00:39:48;;;;;;;8.10;7.30;;;7.80;99.90;;;;;;5088454;28;20423;-77
2021/04/19 00:42:15;;;;;;;8.73;7.93;;;7.80;99.90;;;;;;5088201;28;20202;-77
2021/04/19 00:44:44;;;;;;;8.20;7.50;;;7.80;99.90;;;;;;5091189;28;20553;-77
2021/04/19 00:47:11;;;;;;;7.97;7.27;;;7.70;99.90;;;;;;5092232;28;20297;-77
2021/04/19 00:49:38;;;;;;;7.97;7.33;;;7.70;99.90;;;;;;5092216;28;20206;-77
2021/04/19 00:52:05;;;;;;;7.80;7.10;;;7.70;99.90;;;;;;5092362;28;20352;-77
2021/04/19 00:54:31;;;;;;;8.70;7.90;;;7.70;99.90;;;;;;5092578;28;20248;-78
2021/04/19 00:56:59;;;;;;;8.20;7.37;;;7.70;99.90;;;;;;5092326;28;20570;-77
2021/04/19 00:59:25;;;;;;;8.63;7.83;;;7.70;99.90;;;;;;5092143;28;20213;-77
2021/04/19 01:01:51;;;;;;;7.50;6.90;;;7.60;99.90;;;;;;5092083;28;20668;-77
2021/04/19 01:04:18;;;;;;;8.57;7.83;;;7.60;99.90;;;;;;5091663;28;20969;-77
2021/04/19 01:06:45;;;;;;;8.70;8.00;;;7.60;99.90;;;;;;5092144;28;20213;-79
2021/04/19 01:09:11;;;;;;;8.83;8.03;;;7.60;99.90;;;;;;5092567;28;20199;-79
2021/04/19 01:11:38;;;;;;;8.33;7.53;;;7.60;99.90;;;;;;5091957;28;20230;-79
2021/04/19 01:14:04;;;;;;;8.10;7.40;;;7.60;99.90;;;;;;5086385;28;20581;-79
2021/04/19 01:16:30;;;;;;;8.57;7.87;;;7.60;99.90;;;;;;5071341;28;20250;-78
2021/04/19 01:18:56;;;;;;;8.77;7.87;;;7.60;99.90;;;;;;5071866;28;20208;-78
2021/04/19 01:21:23;;;;;;;8.60;7.80;;;7.60;99.90;;;;;;5082556;28;20207;-80
2021/04/19 01:23:50;;;;;;;8.53;7.73;;;7.60;99.90;;;;;;5091831;28;20242;-79
2021/04/19 01:26:16;;;;;;;8.50;7.73;;;7.60;99.90;;;;;;5091804;28;20215;-80
2021/04/19 01:28:42;;;;;;;9.07;8.17;;;7.60;99.90;;;;;;5091732;28;20210;-80
2021/04/19 01:31:08;;;;;;;9.77;8.77;;;7.60;99.90;;;;;;5091532;28;20219;-79
2021/04/19 01:33:34;;;;;;;10.70;9.27;;;7.60;99.90;;;;;;5091681;28;20215;-78
2021/04/19 01:36:00;;;;;;;10.03;9.03;;;7.60;99.90;;;;;;5091469;28;20246;-77
2021/04/19 01:38:27;;;;;;;10.53;9.53;;;7.60;99.90;;;;;;5091016;28;20217;-77
2021/04/19 01:40:54;;;;;;;11.43;9.03;;;7.60;99.90;;;;;;5091457;28;20213;-77
2021/04/19 01:43:21;;;;;;;11.60;9.63;;;7.60;99.90;;;;;;5091434;28;20245;-79
2021/04/19 01:45:48;;;;;;;15.57;11.00;;;7.60;99.90;;;;;;5091583;28;20203;-79
2021/04/19 01:48:15;;;;;;;14.77;12.23;;;7.60;99.90;;;;;;5091205;28;20371;-79
2021/04/19 01:50:41;;;;;;;17.23;12.30;;;7.70;99.90;;;;;;5091121;28;20698;-79
2021/04/19 01:53:07;;;;;;;18.70;13.40;;;7.70;99.90;;;;;;5091224;28;20206;-78
2021/04/19 01:55:35;;;;;;;27.93;12.87;;;7.70;99.90;;;;;;5089181;28;20707;-79
2021/04/19 01:58:04;;;;;;;26.73;13.47;;;7.80;99.90;;;;;;5089899;28;20845;-78
2021/04/19 02:00:32;;;;;;;21.40;12.90;;;7.80;99.90;;;;;;5090776;28;20210;-78
2021/04/19 02:03:09;;;;;;;18.03;13.17;;;7.80;99.90;;;;;;5090378;28;20222;-79
2021/04/19 02:05:46;;;;;;;19.37;12.80;;;7.80;99.90;;;;;;5091273;28;20213;-78
2021/04/19 02:08:25;;;;;;;21.13;12.83;;;7.80;99.90;;;;;;5090937;28;20783;-77
2021/04/19 02:10:57;;;;;;;17.17;12.80;;;7.80;99.90;;;;;;5090785;28;20242;-77
2021/04/19 02:13:35;;;;;;;17.77;13.03;;;7.80;99.90;;;;;;5090930;28;20191;-77
2021/04/19 02:16:08;;;;;;;19.23;12.70;;;7.70;99.90;;;;;;5090375;28;20281;-76
2021/04/19 02:18:43;;;;;;;18.43;14.23;;;7.80;99.90;;;;;;5090852;28;20634;-77
2021/04/19 02:21:14;;;;;;;16.33;12.60;;;7.80;99.90;;;;;;5090256;28;20202;-76
2021/04/19 02:23:45;;;;;;;17.17;11.90;;;7.80;99.90;;;;;;5090962;28;20277;-77
2021/04/19 02:26:17;;;;;;;21.10;11.37;;;7.70;99.90;;;;;;5090666;28;20209;-76
2021/04/19 02:28:51;;;;;;;13.27;11.33;;;7.70;99.90;;;;;;5090726;28;20187;-76
2021/04/19 02:31:19;;;;;;;13.27;11.40;;;7.70;99.90;;;;;;5089936;28;20752;-76
2021/04/19 02:33:47;;;;;;;17.03;11.57;;;7.70;99.90;;;;;;5090175;28;20199;-76
2021/04/19 02:36:14;;;;;;;16.50;11.53;;;7.70;99.90;;;;;;5089993;28;20203;-76
2021/04/19 02:38:43;;;;;;;17.40;10.97;;;7.70;99.90;;;;;;5087629;28;20215;-76
2021/04/19 02:41:14;;;;;;;14.00;12.00;;;7.70;99.90;;;;;;5089972;28;20210;-76
2021/04/19 02:43:41;;;;;;;13.17;11.83;;;7.70;99.90;;;;;;5090380;28;20953;-76
2021/04/19 02:46:09;;;;;;;14.77;11.67;;;7.70;99.90;;;;;;5090228;28;20214;-76
2021/04/19 02:48:37;;;;;;;13.03;11.83;;;7.70;99.90;;;;;;5090104;28;20241;-77
2021/04/19 02:51:06;;;;;;;14.37;12.87;;;7.70;99.90;;;;;;5089813;28;20709;-77
2021/04/19 02:53:33;;;;;;;14.70;12.83;;;7.80;99.90;;;;;;5090103;28;20211;-76
2021/04/19 02:56:01;;;;;;;14.73;11.90;;;7.70;99.90;;;;;;5089475;28;20570;-75
2021/04/19 02:58:37;;;;;;;15.53;12.83;;;7.80;99.90;;;;;;5089918;28;20271;-76
2021/04/19 03:01:05;;;;;;;16.43;13.00;;;7.80;99.90;;;;;;5090232;28;20240;-77
2021/04/19 03:03:32;;;;;;;16.33;12.40;;;7.80;99.90;;;;;;5089315;28;20758;-78
2021/04/19 03:06:00;;;;;;;13.93;12.43;;;7.70;99.90;;;;;;5086546;28;20207;-78
2021/04/19 03:08:31;;;;;;;29.77;12.83;;;7.70;99.90;;;;;;5070684;28;20211;-76
2021/04/19 03:11:03;;;;;;;87.27;14.13;;;7.70;99.90;;;;;;5083006;28;20280;-75
2021/04/19 03:13:32;;;;;;;24.67;13.57;;;7.50;99.90;;;;;;5078544;28;20246;-76
2021/04/19 03:15:59;;;;;;;19.17;12.90;;;7.40;99.90;;;;;;5083507;28;20869;-76
2021/04/19 03:18:27;;;;;;;36.17;13.03;;;7.40;99.90;;;;;;5087758;28;20565;-77
2021/04/19 03:21:06;;;;;;;23.40;13.50;;;7.30;99.90;;;;;;5087935;28;20246;-75
2021/04/19 03:23:35;;;;;;;20.33;13.03;;;7.30;99.90;;;;;;5088123;28;20191;-76
2021/04/19 03:26:03;;;;;;;21.00;13.53;;;7.20;99.90;;;;;;5087726;28;20198;-76
2021/04/19 03:28:32;;;;;;;14.77;12.50;;;7.20;99.90;;;;;;5086670;28;20206;-73
2021/04/19 03:30:59;;;;;;;14.67;13.23;;;7.20;99.90;;;;;;5086495;28;20214;-77
2021/04/19 03:33:26;;;;;;;16.63;12.20;;;7.30;99.90;;;;;;5086844;28;20297;-76
2021/04/19 03:35:53;;;;;;;48.20;13.47;;;7.30;99.90;;;;;;5086851;28;20681;-76
2021/04/19 03:38:22;;;;;;;17.40;13.17;;;7.20;99.90;;;;;;5086895;28;20660;-76
2021/04/19 03:40:50;;;;;;;14.53;12.13;;;7.20;99.90;;;;;;5086638;28;20665;-76
2021/04/19 03:43:19;;;;;;;17.63;13.87;;;7.30;99.90;;;;;;5086794;28;20300;-76
2021/04/19 03:45:49;;;;;;;52.97;14.17;;;7.30;99.90;;;;;;5087002;28;20214;-76
2021/04/19 03:48:20;;;;;;;16.77;13.60;;;7.20;99.90;;;;;;5087103;28;20203;-76
2021/04/19 03:50:50;;;;;;;18.50;14.17;;;7.10;99.90;;;;;;5086854;28;20191;-76
2021/04/19 03:53:17;;;;;;;17.70;13.83;;;7.10;99.90;;;;;;5086992;28;20195;-76
2021/04/19 03:55:45;;;;;;;19.03;13.67;;;7.10;99.90;;;;;;5086854;28;20246;-76
2021/04/19 03:58:13;;;;;;;17.37;13.40;;;7.10;99.90;;;;;;5086327;28;20268;-76
2021/04/19 04:00:42;;;;;;;15.60;13.17;;;7.20;99.90;;;;;;5072083;28;20211;-76
2021/04/19 04:03:10;;;;;;;15.17;12.40;;;7.30;99.90;;;;;;5088298;28;20777;-74
2021/04/19 04:05:37;;;;;;;14.00;12.60;;;7.30;99.90;;;;;;5088372;28;20236;-74
2021/04/19 04:08:06;;;;;;;14.23;12.33;;;7.30;99.90;;;;;;5090845;28;20262;-74
2021/04/19 04:10:34;;;;;;;13.17;11.43;;;7.40;99.90;;;;;;5093861;28;20195;-75
2021/04/19 04:13:00;;;;;;;12.90;11.70;;;7.50;99.90;;;;;;5094130;28;20707;-75
2021/04/19 04:15:26;;;;;;;13.60;12.30;;;7.50;99.90;;;;;;5098108;28;20647;-74
2021/04/19 04:17:52;;;;;;;12.33;11.23;;;7.40;99.90;;;;;;5092099;28;20194;-75
2021/04/19 04:20:19;;;;;;;30.93;12.10;;;7.50;99.90;;;;;;5094590;28;20226;-74
2021/04/19 04:22:47;;;;;;;19.00;11.30;;;7.40;99.90;;;;;;5096798;28;20213;-74
2021/04/19 04:25:14;;;;;;;12.97;11.67;;;7.30;99.90;;;;;;5096720;28;20572;-74
2021/04/19 04:27:41;;;;;;;13.83;11.63;;;7.30;99.90;;;;;;5096409;28;20234;-75
2021/04/19 04:30:08;;;;;;;17.10;10.80;;;7.30;99.90;;;;;;5096264;28;20234;-75
2021/04/19 04:32:34;;;;;;;12.33;11.23;;;7.40;99.90;;;;;;5097774;28;20222;-75
2021/04/19 04:35:00;;;;;;;25.03;11.30;;;7.40;99.90;;;;;;5097966;28;20739;-74
2021/04/19 04:37:27;;;;;;;13.60;10.17;;;7.30;99.90;;;;;;5093446;28;20280;-75
2021/04/19 04:39:53;;;;;;;12.63;10.60;;;7.30;99.90;;;;;;5099224;28;20195;-75
2021/04/19 04:42:23;;;;;;;12.57;11.20;;;7.40;99.90;;;;;;5096797;28;20201;-74
2021/04/19 04:44:50;;;;;;;13.67;9.63;;;7.40;99.90;;;;;;5094890;28;20572;-75
2021/04/19 04:47:23;;;;;;;25.43;11.27;;;7.40;99.90;;;;;;5098196;28;20282;-74
2021/04/19 04:49:56;;;;;;;36.63;11.43;;;7.30;99.90;;;;;;5095135;28;20533;-74
2021/04/19 04:52:24;;;;;;;14.90;11.13;;;7.10;99.90;;;;;;5095129;28;20258;-74
2021/04/19 04:54:51;;;;;;;18.03;11.00;;;7.10;99.90;;;;;;5089863;28;20206;-74
2021/04/19 04:57:21;;;;;;;13.43;11.47;;;7.10;99.90;;;;;;5087004;28;20210;-74
2021/04/19 04:59:50;;;;;;;36.77;11.90;;;7.10;99.90;;;;;;5091292;28;20203;-74
2021/04/19 05:02:19;;;;;;;21.30;12.00;;;7.10;99.90;;;;;;5097125;28;20222;-74
2021/04/19 05:04:47;;;;;;;16.30;12.23;;;7.10;99.90;;;;;;5095972;28;20213;-74
2021/04/19 05:07:13;;;;;;;14.07;11.30;;;7.20;99.90;;;;;;5085582;28;20198;-74
2021/04/19 05:09:39;;;;;;;16.70;11.67;;;7.20;99.90;;;;;;5096729;28;20657;-74
2021/04/19 05:12:07;;;;;;;21.37;12.43;;;7.30;99.90;;;;;;5094320;28;20242;-74
2021/04/19 05:14:37;;;;;;;33.27;12.33;;;7.30;99.90;;;;;;5085748;28;20350;-73
2021/04/19 05:17:03;;;;;;;24.10;14.87;;;7.20;99.90;;;;;;5098486;28;20207;-74
2021/04/19 05:19:29;;;;;;;26.33;11.70;;;7.20;99.90;;;;;;5092385;28;20276;-74
2021/04/19 05:21:55;;;;;;;20.93;12.43;;;7.20;99.90;;;;;;5089238;28;20228;-74
2021/04/19 05:24:21;;;;;;;39.40;12.77;;;7.20;99.90;;;;;;5091016;28;20291;-76
2021/04/19 05:26:47;;;;;;;45.10;14.20;;;7.20;99.90;;;;;;5082300;28;20206;-75
2021/04/19 05:29:15;;;;;;;32.37;13.33;;;7.10;99.90;;;;;;5086738;28;20242;-78
2021/04/19 05:31:41;;;;;;;15.67;12.80;;;7.10;99.90;;;;;;5089778;28;20234;-76
2021/04/19 05:34:07;;;;;;;34.53;12.63;;;7.10;99.90;;;;;;5091507;28;20267;-76
2021/04/19 05:36:34;;;;;;;16.53;11.17;;;7.30;99.90;;;;;;5091549;28;20257;-76
2021/04/19 05:39:02;;;;;;;13.67;12.27;;;7.10;99.90;;;;;;5091689;28;20217;-76
2021/04/19 05:41:29;;;;;;;13.40;12.00;;;7.30;99.90;;;;;;5091399;28;20207;-77
2021/04/19 05:43:56;;;;;;;11.37;10.27;;;7.30;99.90;;;;;;5091659;28;20219;-76
2021/04/19 05:46:22;;;;;;;11.30;10.20;;;7.30;99.90;;;;;;5091296;28;20206;-76
2021/04/19 05:48:49;;;;;;;12.00;10.90;;;7.30;99.90;;;;;;5091266;28;20345;-76
2021/04/19 05:51:23;;;;;;;11.50;10.40;;;7.50;99.90;;;;;;5090739;28;20714;-76
2021/04/19 05:53:51;;;;;;;11.63;10.43;;;7.50;99.90;;;;;;5091304;28;20223;-76
2021/04/19 05:56:27;;;;;;;11.60;10.50;;;7.60;99.90;;;;;;5091062;28;20218;-76
2021/04/19 05:59:01;;;;;;;13.60;10.50;;;7.60;99.90;;;;;;5089791;28;20215;-76
2021/04/19 06:01:30;;;;;;;13.33;10.23;;;7.50;99.90;;;;;;5090862;28;20209;-77
2021/04/19 06:04:06;;;;;;;15.03;11.03;;;7.40;99.90;;;;;;5090706;28;20226;-76
2021/04/19 06:06:41;;;;;;;15.17;11.87;;;7.40;99.90;;;;;;5090686;28;20665;-76
2021/04/19 06:09:12;;;;;;;12.50;11.10;;;7.40;99.90;;;;;;5091305;28;20199;-76
2021/04/19 06:11:42;;;;;;;12.97;11.67;;;7.40;99.90;;;;;;5090920;28;20250;-76
2021/04/19 06:14:10;;;;;;;12.63;11.33;;;7.50;99.90;;;;;;5091189;28;20203;-76
2021/04/19 06:16:38;;;;;;;13.53;12.10;;;7.50;99.90;;;;;;5090247;28;20230;-76
2021/04/19 06:19:06;;;;;;;13.67;12.27;;;7.50;99.90;;;;;;5090605;28;20214;-76
2021/04/19 06:21:34;;;;;;;13.40;12.00;;;7.50;99.90;;;;;;5090250;28;20681;-76
2021/04/19 06:24:02;;;;;;;16.33;12.07;;;7.50;99.90;;;;;;5090757;28;20206;-76
2021/04/19 06:26:29;;;;;;;13.80;12.20;;;7.50;99.90;;;;;;5090057;28;20203;-76
2021/04/19 06:28:55;;;;;;;15.57;12.80;;;7.40;99.90;;;;;;5090540;28;20206;-77
2021/04/19 06:31:23;;;;;;;14.83;12.30;;;7.50;99.90;;;;;;5090609;28;20230;-77
2021/04/19 06:34:03;;;;;;;15.10;13.27;;;7.60;99.90;;;;;;5090356;28;20242;-76
2021/04/19 06:36:31;;;;;;;14.87;12.77;;;7.60;99.90;;;;;;5090343;28;20191;-77
2021/04/19 06:38:57;;;;;;;14.57;13.03;;;7.70;99.90;;;;;;5090292;28;20310;-77
2021/04/19 06:41:28;;;;;;;14.40;12.10;;;7.80;99.90;;;;;;5089764;28;20662;-77
2021/04/19 06:43:56;;;;;;;16.10;13.13;;;7.90;99.90;;;;;;5090288;28;20240;-77
2021/04/19 06:46:22;;;;;;;13.43;12.03;;;8.00;99.90;;;;;;5090354;28;20206;-76
2021/04/19 06:48:50;;;;;;;14.50;13.03;;;8.00;99.90;;;;;;5090107;28;20203;-76
2021/04/19 06:51:17;;;;;;;14.07;12.63;;;8.10;99.90;;;;;;5089739;28;20227;-76
2021/04/19 06:53:44;;;;;;;13.93;12.57;;;8.10;99.90;;;;;;5090017;28;20207;-76
2021/04/19 06:56:12;;;;;;;13.83;12.47;;;8.20;99.90;;;;;;5090062;28;20214;-76
2021/04/19 06:58:41;;;;;;;14.97;13.47;;;8.20;99.90;;;;;;5089909;28;20571;-77
2021/04/19 07:01:08;;;;;;;16.57;14.57;;;8.30;99.90;;;;;;5089931;28;20238;-76
2021/04/19 07:03:35;;;;;;;16.23;14.53;;;8.30;99.90;;;;;;5089659;28;20246;-76
2021/04/19 07:06:03;;;;;;;17.67;14.70;;;8.30;99.90;;;;;;5090045;28;20293;-76
2021/04/19 07:08:34;;;;;;;17.17;15.47;;;8.30;99.90;;;;;;5089409;28;20207;-76
2021/04/19 07:11:03;;;;;;;17.23;15.37;;;8.20;99.90;;;;;;5089751;28;20256;-76
2021/04/19 07:13:30;;;;;;;17.20;15.50;;;8.10;99.90;;;;;;5089555;28;20214;-77
2021/04/19 07:15:57;;;;;;;17.10;15.40;;;8.10;99.90;;;;;;5089076;28;20777;-77
2021/04/19 07:18:23;;;;;;;17.57;15.67;;;8.10;99.90;;;;;;5089706;28;20207;-77
2021/04/19 07:20:49;;;;;;;17.50;15.70;;;8.20;99.90;;;;;;5089695;28;20210;-76
2021/04/19 07:23:16;;;;;;;17.67;15.43;;;8.30;99.90;;;;;;5089702;28;20611;-76
2021/04/19 07:25:44;;;;;;;17.83;15.80;;;8.40;99.90;;;;;;5089736;28;20206;-77
2021/04/19 07:28:12;;;;;;;18.03;16.23;;;8.50;99.90;;;;;;5089446;28;20210;-76
2021/04/19 07:30:38;;;;;;;18.47;16.40;;;8.60;99.90;;;;;;5089251;28;20206;-77
2021/04/19 07:33:04;;;;;;;19.80;17.23;;;8.60;99.90;;;;;;5089381;28;20234;-76
2021/04/19 07:35:32;;;;;;;18.23;16.33;;;8.70;99.90;;;;;;5089125;28;20256;-76
2021/04/19 07:38:00;;;;;;;18.93;16.93;;;8.70;99.90;;;;;;5089315;28;20211;-77
2021/04/19 07:40:32;;;;;;;18.40;15.43;;;8.80;99.90;;;;;;5089157;28;20297;-77
2021/04/19 07:43:12;;;;;;;19.40;17.33;;;8.70;99.90;;;;;;5089324;28;20239;-76
2021/04/19 07:45:41;;;;;;;19.10;16.97;;;8.70;99.90;;;;;;5088651;28;20557;-76
2021/04/19 07:48:28;;;;;;;18.57;16.53;;;8.70;99.90;;;;;;5089075;28;20213;-77
2021/04/19 07:50:54;;;;;;;21.40;17.33;;;8.80;99.90;;;;;;5089255;28;20245;-76
2021/04/19 07:53:21;;;;;;;21.33;17.97;;;8.90;99.90;;;;;;5088221;28;20292;-77
2021/04/19 07:55:52;;;;;;;19.33;17.33;;;8.90;99.90;;;;;;5088929;28;20209;-77
2021/04/19 07:58:21;;;;;;;19.27;17.37;;;9.00;99.90;;;;;;5089051;28;20195;-76
2021/04/19 08:00:48;;;;;;;18.50;16.60;;;9.00;99.90;;;;;;5088796;28;20203;-76
2021/04/19 08:03:17;;;;;;;19.70;17.63;;;9.10;99.90;;;;;;5088977;28;20272;-76
2021/04/19 08:05:47;;;;;;;20.23;17.80;;;9.10;99.90;;;;;;5088457;28;20214;-77
2021/04/19 08:08:15;;;;;;;20.93;17.40;;;9.10;99.90;;;;;;5089145;28;20278;-77
2021/04/19 08:10:43;;;;;;;20.93;18.33;;;9.10;99.90;;;;;;5088420;28;20211;-76
2021/04/19 08:13:11;;;;;;;19.70;17.40;;;9.10;99.90;;;;;;5088577;28;20226;-76
2021/04/19 08:15:39;;;;;;;19.93;17.77;;;9.00;99.90;;;;;;5088295;28;20611;-76
2021/04/19 08:18:09;;;;;;;21.00;18.30;;;9.00;99.90;;;;;;5088717;28;21209;-76
2021/04/19 08:20:36;;;;;;;21.50;19.10;;;9.10;99.90;;;;;;5088789;28;20203;-76
2021/04/19 08:23:10;;;;;;;20.93;18.83;;;9.10;99.90;;;;;;5088729;28;20210;-76
2021/04/19 08:25:42;;;;;;;22.37;20.07;;;9.20;99.90;;;;;;5088735;28;20191;-76
2021/04/19 08:28:10;;;;;;;21.97;19.73;;;9.20;99.90;;;;;;5088497;28;20213;-76
2021/04/19 08:30:38;;;;;;;20.07;17.97;;;9.30;99.90;;;;;;5088604;28;20210;-77
2021/04/19 08:33:06;;;;;;;21.27;19.00;;;9.40;99.90;;;;;;5088405;28;20230;-77
2021/04/19 08:35:33;;;;;;;24.07;21.57;;;9.40;99.90;;;;;;5088464;28;20290;-76
2021/04/19 08:38:01;;;;;;;21.77;19.47;;;9.50;99.90;;;;;;5088597;28;20213;-77
2021/04/19 08:40:29;;;;;;;22.63;19.60;;;9.40;99.90;;;;;;5088148;28;20202;-77
2021/04/19 08:42:56;;;;;;;22.70;20.33;;;9.50;99.90;;;;;;5088471;28;20210;-77
2021/04/19 08:45:23;;;;;;;23.07;20.57;;;9.60;99.90;;;;;;5088384;28;20237;-76
2021/04/19 08:47:51;;;;;;;23.47;19.77;;;9.50;99.90;;;;;;5088191;28;20202;-77
2021/04/19 08:50:21;;;;;;;22.80;20.50;;;9.50;99.90;;;;;;5088324;28;20202;-76
2021/04/19 08:52:47;;;;;;;22.67;20.27;;;9.50;99.90;;;;;;5088282;28;20276;-76
2021/04/19 08:55:14;;;;;;;23.70;21.13;;;9.50;99.90;;;;;;5088018;28;20673;-76
2021/04/19 08:57:44;;;;;;;23.53;20.83;;;9.60;99.90;;;;;;5087894;28;20677;-77
2021/04/19 09:00:12;;;;;;;24.50;21.83;;;9.80;99.90;;;;;;5088408;28;20207;-77
2021/04/19 09:02:39;;;;;;;23.67;21.27;;;9.90;99.90;;;;;;5087167;28;20233;-76
2021/04/19 09:05:12;;;;;;;22.73;20.43;;;10.00;99.90;;;;;;5088341;28;20214;-78
2021/04/19 09:07:41;;;;;;;23.60;21.20;;;10.00;99.90;;;;;;5092182;28;20249;-77
2021/04/19 09:10:10;;;;;;;23.93;21.43;;;10.10;99.90;;;;;;5092236;28;20226;-76
2021/04/19 09:12:37;;;;;;;22.07;19.77;;;10.10;99.90;;;;;;5091953;28;20231;-76
2021/04/19 09:15:28;;;;;;;23.20;20.80;;;10.20;99.90;;;;;;5091557;28;20238;-77
2021/04/19 09:18:06;;;;;;;24.30;21.57;;;10.30;99.90;;;;;;5081672;28;20202;-77
2021/04/19 09:20:47;;;;;;;22.93;20.47;;;10.30;99.90;;;;;;5091671;28;20199;-76
2021/04/19 09:23:22;;;;;;;22.40;19.90;;;10.30;99.90;;;;;;5092044;28;20218;-76
2021/04/19 09:25:49;;;;;;;21.60;19.30;;;10.30;99.90;;;;;;5091724;28;20234;-76
2021/04/19 09:28:38;;;;;;;21.17;18.97;;;10.30;99.90;;;;;;5091663;28;20203;-76
2021/04/19 09:31:05;;;;;;;21.73;19.20;;;10.20;99.90;;;;;;5091079;28;20211;-76
2021/04/19 09:33:31;;;;;;;20.07;17.97;;;10.10;99.90;;;;;;5091224;28;20252;-76
2021/04/19 09:35:58;;;;;;;20.10;18.00;;;10.10;99.90;;;;;;5091737;28;20206;-76
2021/04/19 09:38:51;;;;;;;18.37;16.57;;;10.20;99.90;;;;;;5091703;28;20572;-76
2021/04/19 09:41:21;;;;;;;18.43;16.63;;;10.20;99.90;;;;;;5091289;28;20788;-76
2021/04/19 09:43:51;;;;;;;18.90;16.93;;;10.30;99.90;;;;;;5091358;28;20207;-76
2021/04/19 09:46:29;;;;;;;18.87;16.90;;;10.40;99.90;;;;;;5091181;28;20637;-77
2021/04/19 09:49:04;;;;;;;18.00;16.20;;;10.40;99.90;;;;;;5091550;28;20190;-76
2021/04/19 09:51:34;;;;;;;17.70;15.77;;;10.40;99.90;;;;;;5091216;28;20186;-76
2021/04/19 09:54:11;;;;;;;18.70;16.90;;;10.50;99.90;;;;;;5091363;28;20259;-77
2021/04/19 09:56:40;;;;;;;18.33;16.43;;;10.50;99.90;;;;;;5090988;28;20213;-76
2021/04/19 09:59:08;;;;;;;17.87;16.03;;;10.40;99.90;;;;;;5091036;28;20210;-76
2021/04/19 10:01:36;;;;;;;16.97;15.27;;;10.40;99.90;;;;;;5090596;28;20764;-76
2021/04/19 10:04:04;;;;;;;29.13;16.60;;;10.30;99.90;;;;;;5091139;28;20662;-76
2021/04/19 10:06:38;;;;;;;34.47;18.37;;;10.20;99.90;;;;;;5090907;28;20226;-76
2021/04/19 10:09:08;;;;;;;39.83;19.50;;;10.20;99.90;;;;;;5091261;28;20195;-76
2021/04/19 10:11:35;;;;;;;53.67;20.83;;;10.20;99.90;;;;;;5090704;28;20639;-76
2021/04/19 10:14:08;;;;;;;24.83;17.17;;;10.20;99.90;;;;;;5090540;28;20698;-76
2021/04/19 10:16:45;;;;;;;27.57;17.00;;;10.20;99.90;;;;;;5089520;28;20239;-76
2021/04/19 10:19:12;;;;;;;76.17;22.40;;;10.30;99.90;;;;;;5090555;28;20293;-76
2021/04/19 10:21:40;;;;;;;43.17;20.37;;;10.20;99.90;;;;;;5090413;28;20222;-76
2021/04/19 10:24:15;;;;;;;22.33;18.53;;;10.20;99.90;;;;;;5090764;28;20203;-76
2021/04/19 10:26:41;;;;;;;20.33;18.20;;;10.30;99.90;;;;;;5090696;28;20199;-76
2021/04/19 10:29:11;;;;;;;21.67;18.33;;;10.40;99.90;;;;;;5090645;28;20203;-76
2021/04/19 10:31:38;;;;;;;20.27;18.10;;;10.40;99.90;;;;;;5090472;28;20219;-76
2021/04/19 10:34:11;;;;;;;21.70;19.40;;;10.50;99.90;;;;;;5090582;28;20566;-76
2021/04/19 10:36:44;;;;;;;21.77;18.27;;;10.40;99.90;;;;;;5090236;28;20811;-76
2021/04/19 10:39:16;;;;;;;23.60;18.10;;;10.30;99.90;;;;;;5090372;28;20280;-77
2021/04/19 10:41:42;;;;;;;21.93;18.77;;;10.30;99.90;;;;;;5090124;28;20214;-77
2021/04/19 10:44:09;;;;;;;21.67;19.27;;;10.30;99.90;;;;;;5090448;28;20268;-77
2021/04/19 10:46:38;;;;;;;34.37;19.97;;;10.30;99.90;;;;;;5090175;28;20215;-76
2021/04/19 10:49:05;;;;;;;68.83;23.97;;;10.40;99.90;;;;;;5090345;28;20298;-77
2021/04/19 10:51:33;;;;;;;69.30;22.83;;;10.50;99.90;;;;;;5090128;28;20214;-77
2021/04/19 10:54:01;;;;;;;27.20;19.27;;;10.60;99.90;;;;;;5089938;28;20218;-76
2021/04/19 10:56:29;;;;;;;23.40;18.80;;;10.60;99.90;;;;;;5089680;28;20203;-76
2021/04/19 10:58:57;;;;;;;20.40;17.93;;;10.60;99.90;;;;;;5089637;28;20659;-76
2021/04/19 11:01:25;;;;;;;19.47;17.43;;;10.60;99.90;;;;;;5089791;28;20231;-77
2021/04/19 11:03:52;;;;;;;20.03;18.03;;;10.60;99.90;;;;;;5089986;28;20261;-76
2021/04/19 11:06:19;;;;;;;20.50;18.33;;;10.50;99.90;;;;;;5087106;28;20218;-76
2021/04/19 11:08:53;;;;;;;19.23;17.20;;;10.50;99.90;;;;;;5082291;28;20207;-75
2021/04/19 11:11:26;;;;;;;19.33;17.43;;;10.40;99.90;;;;;;5090446;28;20202;-76
2021/04/19 11:13:54;;;;;;;19.53;17.57;;;10.50;99.90;;;;;;5097882;28;20199;-76
2021/04/19 11:16:22;;;;;;;18.23;16.37;;;10.50;99.90;;;;;;5100259;27;20235;-76
2021/04/19 11:18:48;;;;;;;20.00;17.87;;;10.50;99.90;;;;;;5099453;28;20233;-76
2021/04/19 11:21:31;;;;;;;20.23;18.17;;;10.60;99.90;;;;;;5094370;28;20195;-76
2021/04/19 11:24:06;;;;;;;19.33;17.33;;;10.60;99.90;;;;;;5088988;28;20199;-70
2021/04/19 11:26:33;;;;;;;19.43;17.47;;;10.80;99.90;;;;;;5092475;28;20209;-76
2021/04/19 11:29:00;;;;;;;21.70;17.63;;;10.90;99.90;;;;;;5097593;28;20221;-76
2021/04/19 11:31:26;;;;;;;19.17;17.27;;;10.90;99.90;;;;;;5098404;28;20209;-76
2021/04/19 11:34:07;;;;;;;19.57;17.07;;;10.90;99.90;;;;;;5097063;28;20217;-75
2021/04/19 11:36:36;;;;;;;19.97;17.77;;;10.80;99.90;;;;;;5092898;28;20201;-76
2021/04/19 11:39:12;;;;;;;20.30;18.17;;;10.90;99.90;;;;;;5095592;28;20229;-76
2021/04/19 11:41:39;;;;;;;19.20;17.20;;;10.90;99.90;;;;;;5095182;28;20214;-76
2021/04/19 11:44:06;;;;;;;23.63;18.43;;;11.00;99.90;;;;;;5096385;28;20205;-76
2021/04/19 11:46:33;;;;;;;22.43;19.87;;;11.00;99.90;;;;;;5095984;28;20210;-77
2021/04/19 11:48:59;;;;;;;21.80;19.50;;;11.10;99.90;;;;;;5099058;28;20210;-76
2021/04/19 11:51:26;;;;;;;29.17;21.87;;;11.10;99.90;;;;;;5098522;28;20209;-77
2021/04/19 11:53:52;;;;;;;40.03;21.87;;;11.20;99.90;;;;;;5094045;28;20234;-76
2021/04/19 11:56:19;;;;;;;29.53;21.03;;;11.20;99.90;;;;;;5086343;28;20252;-76
2021/04/19 11:58:48;;;;;;;26.80;20.10;;;11.50;99.90;;;;;;5077007;28;20203;-77
2021/04/19 12:01:16;;;;;;;22.40;19.87;;;11.80;99.90;;;;;;5075953;28;20230;-76
2021/04/19 12:03:43;;;;;;;24.23;20.37;;;12.10;99.90;;;;;;5102156;28;20206;-76
2021/04/19 12:06:10;;;;;;;39.77;22.90;;;12.30;99.90;;;;;;5091509;28;20887;-77
2021/04/19 12:08:39;;;;;;;76.33;26.43;;;12.70;99.90;;;;;;5071326;28;20222;-76
2021/04/19 12:11:05;;;;;;;67.00;25.40;;;12.80;99.90;;;;;;5080231;28;20749;-76
2021/04/19 12:13:31;;;;;;;27.10;20.53;;;12.90;99.90;;;;;;5090532;28;20238;-76
2021/04/19 12:15:58;;;;;;;22.27;20.07;;;12.80;99.90;;;;;;5098047;28;20257;-76
2021/04/19 12:18:25;;;;;;;20.57;18.37;;;12.90;99.90;;;;;;5092941;28;20241;-77
2021/04/19 12:20:52;;;;;;;21.33;19.13;;;12.90;99.90;;;;;;5089688;28;20202;-77
2021/04/19 12:23:18;;;;;;;23.50;19.77;;;13.00;99.90;;;;;;5085799;28;20211;-77
2021/04/19 12:25:46;;;;;;;30.73;21.07;;;13.00;99.90;;;;;;5083264;28;20211;-77
2021/04/19 12:28:12;;;;;;;41.47;21.67;;;13.10;99.90;;;;;;5084172;28;20209;-76
2021/04/19 12:30:38;;;;;;;36.07;21.23;;;13.40;99.90;;;;;;5082878;28;20211;-76
2021/04/19 12:33:05;;;;;;;27.27;19.63;;;13.70;99.90;;;;;;5089737;28;20223;-76
2021/04/19 12:35:31;;;;;;;51.87;23.37;;;13.90;99.90;;;;;;5088121;28;20603;-76
2021/04/19 12:37:58;;;;;;;36.90;19.90;;;14.20;99.90;;;;;;5101871;28;20190;-76
2021/04/19 12:40:28;;;;;;;27.93;19.70;;;14.30;99.90;;;;;;5078316;28;20589;-77
2021/04/19 12:42:54;;;;;;;50.43;21.73;;;14.50;99.90;;;;;;5085937;28;20201;-76